Time;durP1;ratioP1;P1;durP2;ratioP2;P2;SDS_P1;SDS_P2;PMS_P1;PMS_P2;Temp;Humidity;BMP_temperature;BMP_pressure;BME280_temperature;BME280_humidity;BME280_pressure;Samples;Min_cycle;Max_cycle;Signal;HPM_P1;HPM_P2
2021/08/17 00:01:35;;;;;;;;;23.50;20.50;;;;;24.82;39.41;101685.00;5057098;28;46342;-48
2021/08/17 00:04:00;;;;;;;;;21.25;19.75;;;;;24.82;39.76;101685.84;5056652;28;45377;-49
2021/08/17 00:06:26;;;;;;;;;20.00;17.00;;;;;24.82;39.76;101685.00;5056841;28;45372;-49
2021/08/17 00:08:51;;;;;;;;;19.75;17.50;;;;;24.82;39.88;101688.50;5056893;28;45391;-49
2021/08/17 00:11:16;;;;;;;;;23.50;22.25;;;;;24.82;39.81;101685.00;5056586;28;45400;-47
2021/08/17 00:13:43;;;;;;;;;17.75;17.00;;;;;24.81;39.84;101680.66;5056583;28;45333;-48
2021/08/17 00:16:09;;;;;;;;;19.00;17.25;;;;;24.81;39.22;101685.97;5055988;28;45244;-50
2021/08/17 00:18:34;;;;;;;;;20.00;18.75;;;;;24.80;39.19;101678.94;5056831;28;45665;-48
2021/08/17 00:21:00;;;;;;;;;20.00;18.25;;;;;24.82;39.36;101683.22;5056328;28;46126;-49
2021/08/17 00:23:25;;;;;;;;;21.75;18.00;;;;;24.80;39.26;101687.78;5056529;28;45430;-49
2021/08/17 00:25:50;;;;;;;;;19.00;19.00;;;;;24.80;39.67;101681.59;5056584;28;45316;-48
2021/08/17 00:28:16;;;;;;;;;17.75;16.75;;;;;24.78;39.78;101681.69;5056892;28;45366;-49
2021/08/17 00:30:41;;;;;;;;;23.50;19.25;;;;;24.78;39.89;101676.41;5056386;28;45303;-47
2021/08/17 00:33:06;;;;;;;;;19.25;17.75;;;;;24.77;39.51;101673.81;5056669;28;45370;-51
2021/08/17 00:35:32;;;;;;;;;25.00;18.25;;;;;24.78;39.38;101678.19;5055112;28;45463;-48
2021/08/17 00:38:00;;;;;;;;;20.00;16.75;;;;;24.77;39.70;101680.00;5056501;28;45415;-49
2021/08/17 00:40:25;;;;;;;;;21.75;17.25;;;;;24.76;39.47;101680.94;5056275;28;45618;-49
2021/08/17 00:42:50;;;;;;;;;17.50;15.00;;;;;24.76;39.77;101680.06;5056263;28;45472;-49
2021/08/17 00:45:28;;;;;;;;;22.75;17.75;;;;;24.76;39.47;101672.97;5056251;28;45316;-50
2021/08/17 00:47:55;;;;;;;;;20.75;15.50;;;;;24.76;39.66;101669.47;5056519;28;45312;-48
2021/08/17 00:50:30;;;;;;;;;21.00;16.50;;;;;24.76;39.53;101675.63;5055978;28;46319;-47
2021/08/17 00:52:55;;;;;;;;;17.25;14.75;;;;;24.74;39.41;101672.22;5056061;28;45883;-47
2021/08/17 00:55:21;;;;;;;;;20.25;19.00;;;;;24.75;40.08;101678.38;5056206;28;45386;-50
2021/08/17 00:57:47;;;;;;;;;18.50;15.75;;;;;24.74;39.77;101666.06;5056392;28;45411;-50
2021/08/17 01:00:14;;;;;;;;;19.00;17.25;;;;;24.73;39.60;101667.84;5055835;28;46489;-49
2021/08/17 01:02:40;;;;;;;;;16.50;15.00;;;;;24.73;39.79;101667.03;5038298;28;45364;-48
2021/08/17 01:05:06;;;;;;;;;20.25;17.75;;;;;24.74;39.57;101669.56;5055971;28;45295;-48
2021/08/17 01:07:32;;;;;;;;;19.75;16.25;;;;;24.73;39.93;101665.22;5056110;28;45559;-50
2021/08/17 01:09:58;;;;;;;;;13.75;13.50;;;;;24.73;39.98;101670.50;5055884;28;46423;-48
2021/08/17 01:12:23;;;;;;;;;18.25;18.00;;;;;24.73;39.54;101670.50;5055887;28;45242;-49
2021/08/17 01:14:50;;;;;;;;;18.00;15.50;;;;;24.73;39.99;101659.91;5056015;28;45245;-47
2021/08/17 01:17:16;;;;;;;;;14.00;12.00;;;;;24.72;40.03;101663.50;5056078;28;45544;-48
2021/08/17 01:19:42;;;;;;;;;17.50;15.25;;;;;24.73;39.65;101653.75;5037935;28;47580;-49
2021/08/17 01:22:07;;;;;;;;;17.50;15.75;;;;;24.73;39.70;101665.22;5055649;28;45386;-48
2021/08/17 01:24:33;;;;;;;;;18.25;17.00;;;;;24.72;39.73;101662.66;5055592;28;45509;-47
2021/08/17 01:26:58;;;;;;;;;20.00;16.75;;;;;24.72;39.81;101662.66;5055952;28;45545;-49
2021/08/17 01:29:24;;;;;;;;;21.25;16.25;;;;;24.70;40.19;101670.69;5057525;28;48814;-49
2021/08/17 01:31:51;;;;;;;;;18.25;17.50;;;;;24.70;40.16;101676.84;5059073;28;45402;-49
2021/08/17 01:34:16;;;;;;;;;16.50;13.75;;;;;24.69;39.97;101676.97;5059228;28;45327;-50
2021/08/17 01:36:41;;;;;;;;;16.00;15.00;;;;;24.68;39.82;101675.22;5059623;28;45594;-47
2021/08/17 01:39:07;;;;;;;;;17.50;16.25;;;;;24.68;40.14;101678.75;5059009;28;45348;-49
2021/08/17 01:41:33;;;;;;;;;17.75;16.25;;;;;24.68;40.31;101678.75;5058934;28;45178;-48
2021/08/17 01:43:58;;;;;;;;;17.25;15.25;;;;;24.68;39.94;101676.09;5059058;28;45324;-51
2021/08/17 01:46:23;;;;;;;;;15.25;14.00;;;;;24.67;40.31;101677.00;5059299;28;45371;-48
2021/08/17 01:48:49;;;;;;;;;14.50;13.50;;;;;24.66;39.93;101680.59;5058838;28;46461;-48
2021/08/17 01:51:14;;;;;;;;;22.75;17.25;;;;;24.66;39.94;101670.00;5059231;28;45268;-49
2021/08/17 01:53:40;;;;;;;;;18.00;14.50;;;;;24.67;39.90;101682.31;5059395;28;45431;-50
2021/08/17 01:56:10;;;;;;;;;15.00;14.50;;;;;24.67;40.22;101682.31;5059243;28;45640;-47
2021/08/17 01:58:36;;;;;;;;;20.00;14.25;;;;;24.66;39.95;101680.59;5058613;28;45507;-48
2021/08/17 02:01:03;;;;;;;;;12.75;12.75;;;;;24.67;40.28;101674.34;5058777;28;45391;-48
2021/08/17 02:03:29;;;;;;;;;14.75;12.75;;;;;24.67;40.27;101663.75;5058829;28;45261;-50
2021/08/17 02:05:54;;;;;;;;;15.25;15.25;;;;;24.67;39.96;101657.59;5058868;28;45325;-50
2021/08/17 02:08:20;;;;;;;;;14.50;14.50;;;;;24.67;40.39;101661.09;5058504;28;46019;-47
2021/08/17 02:10:45;;;;;;;;;17.00;15.25;;;;;24.66;40.20;101664.69;5040898;28;45248;-48
2021/08/17 02:13:10;;;;;;;;;13.00;12.75;;;;;24.67;40.46;101662.91;5058625;28;45333;-48
2021/08/17 02:15:36;;;;;;;;;16.25;15.00;;;;;24.65;39.76;101649.72;5058858;28;46065;-48
2021/08/17 02:18:01;;;;;;;;;16.25;15.00;;;;;24.66;40.46;101655.91;5058488;28;45507;-49
2021/08/17 02:20:27;;;;;;;;;15.00;13.75;;;;;24.65;40.69;101660.34;5058325;28;45509;-47
2021/08/17 02:22:52;;;;;;;;;15.75;13.00;;;;;24.65;40.60;101654.19;5058514;28;45482;-49
2021/08/17 02:25:18;;;;;;;;;14.50;12.00;;;;;24.65;39.97;101655.03;5058563;28;45375;-48
2021/08/17 02:27:43;;;;;;;;;17.00;14.75;;;;;24.65;39.99;101652.38;5058428;28;46372;-48
2021/08/17 02:30:09;;;;;;;;;19.00;16.75;;;;;24.65;40.00;101647.06;5058345;28;45417;-47
2021/08/17 02:32:35;;;;;;;;;16.25;11.25;;;;;24.65;40.55;101657.69;5058282;28;45422;-48
2021/08/17 02:35:01;;;;;;;;;15.75;14.00;;;;;24.65;40.40;101655.03;5057250;28;45391;-51
2021/08/17 02:37:26;;;;;;;;;13.25;12.75;;;;;24.64;40.38;101655.13;5040093;28;48003;-48
2021/08/17 02:39:52;;;;;;;;;18.25;12.00;;;;;24.64;39.90;101650.66;5057087;28;45341;-48
2021/08/17 02:42:18;;;;;;;;;15.25;14.75;;;;;24.63;40.02;101653.44;5040176;28;45340;-49
2021/08/17 02:44:43;;;;;;;;;16.50;12.75;;;;;24.62;39.84;101663.19;5058663;28;45226;-50
2021/08/17 02:47:09;;;;;;;;;17.75;13.25;;;;;24.61;39.85;101661.47;5057849;28;45647;-49
2021/08/17 02:49:36;;;;;;;;;17.00;14.25;;;;;24.62;40.65;101662.31;5057964;28;45260;-48
2021/08/17 02:52:04;;;;;;;;;14.50;13.75;;;;;24.61;39.90;101657.97;5058112;28;45300;-50
2021/08/17 02:54:33;;;;;;;;;15.25;13.50;;;;;24.60;40.60;101659.78;5058246;28;45451;-48
2021/08/17 02:56:58;;;;;;;;;12.25;12.25;;;;;24.60;40.62;101664.19;5057802;28;47438;-48
2021/08/17 02:59:23;;;;;;;;;19.00;16.75;;;;;24.60;40.49;101656.25;5057600;28;45190;-50
2021/08/17 03:01:49;;;;;;;;;19.00;14.25;;;;;24.60;40.41;101657.13;5057882;28;45379;-52
2021/08/17 03:04:14;;;;;;;;;15.00;13.25;;;;;24.59;40.04;101652.75;5058091;28;45591;-48
2021/08/17 03:06:39;;;;;;;;;14.25;12.75;;;;;24.60;40.36;101658.91;5057802;28;45218;-51
2021/08/17 03:09:05;;;;;;;;;16.25;14.00;;;;;24.60;40.55;101658.91;5057431;28;46982;-49
2021/08/17 03:11:30;;;;;;;;;14.75;12.00;;;;;24.59;40.40;101650.13;5057552;28;45386;-48
2021/08/17 03:13:57;;;;;;;;;20.00;13.25;;;;;24.57;40.43;101649.34;5057819;28;45161;-47
2021/08/17 03:16:26;;;;;;;;;14.50;11.25;;;;;24.58;40.54;101655.50;5057405;28;46986;-48
2021/08/17 03:18:52;;;;;;;;;19.50;16.75;;;;;24.58;40.20;101650.22;5057428;28;45501;-48
2021/08/17 03:21:18;;;;;;;;;16.50;13.00;;;;;24.57;40.37;101652.00;5057898;28;45194;-49
2021/08/17 03:23:43;;;;;;;;;13.00;12.25;;;;;24.57;40.10;101648.50;5057686;28;45637;-49
2021/08/17 03:26:10;;;;;;;;;11.50;11.25;;;;;24.58;40.02;101651.06;5057404;28;46168;-48
2021/08/17 03:28:35;;;;;;;;;18.25;14.00;;;;;24.57;40.50;101644.03;5057265;28;45755;-48
2021/08/17 03:31:01;;;;;;;;;16.25;14.50;;;;;24.57;40.19;101648.50;5057424;28;45307;-48
2021/08/17 03:33:26;;;;;;;;;16.50;12.50;;;;;24.57;40.75;101649.34;5057585;28;45269;-48
2021/08/17 03:35:52;;;;;;;;;13.50;12.25;;;;;24.56;40.48;101642.34;5038984;28;46331;-50
2021/08/17 03:38:18;;;;;;;;;14.75;11.50;;;;;24.56;40.05;101642.34;5057349;28;45836;-51
2021/08/17 03:40:44;;;;;;;;;16.00;12.75;;;;;24.57;40.32;101653.81;5057382;28;45303;-47
2021/08/17 03:43:09;;;;;;;;;12.00;11.50;;;;;24.57;40.57;101648.50;5057278;28;45521;-48
2021/08/17 03:45:35;;;;;;;;;9.00;9.00;;;;;24.56;40.29;101650.28;5056911;28;45977;-48
2021/08/17 03:48:00;;;;;;;;;13.00;12.50;;;;;24.54;39.86;101646.88;5057163;28;45411;-49
2021/08/17 03:50:25;;;;;;;;;14.25;12.25;;;;;24.54;40.08;101644.22;5057120;28;45937;-47
2021/08/17 03:52:51;;;;;;;;;17.75;13.25;;;;;24.53;39.83;101642.50;5057521;28;45532;-50
2021/08/17 03:55:16;;;;;;;;;19.75;13.75;;;;;24.55;40.49;101645.94;5057248;28;45789;-50
2021/08/17 03:57:41;;;;;;;;;15.25;10.25;;;;;24.53;40.33;101643.38;5056949;28;45450;-48
2021/08/17 04:00:11;;;;;;;;;12.75;11.25;;;;;24.55;40.01;101637.97;5056829;28;45201;-48
2021/08/17 04:02:37;;;;;;;;;13.50;12.75;;;;;24.54;40.26;101638.91;5056997;28;45472;-48
2021/08/17 04:05:05;;;;;;;;;13.25;13.25;;;;;24.53;40.32;101638.09;5055342;28;46013;-50
2021/08/17 04:07:31;;;;;;;;;14.50;11.50;;;;;24.53;40.26;101639.84;5038737;28;45327;-51
2021/08/17 04:09:57;;;;;;;;;13.00;12.00;;;;;24.52;40.53;101641.66;5056927;28;45406;-49
2021/08/17 04:12:23;;;;;;;;;15.50;11.00;;;;;24.52;39.87;101636.38;5056943;28;45458;-51
2021/08/17 04:14:48;;;;;;;;;14.50;12.00;;;;;24.50;40.32;101640.06;5056859;28;46603;-48
2021/08/17 04:17:13;;;;;;;;;15.25;13.75;;;;;24.52;40.22;101646.13;5056546;28;45347;-49
2021/08/17 04:19:39;;;;;;;;;13.50;12.50;;;;;24.52;40.59;101640.84;5056785;28;45344;-48
2021/08/17 04:22:06;;;;;;;;;13.75;12.00;;;;;24.51;40.16;101639.13;5056773;28;45325;-47
2021/08/17 04:24:31;;;;;;;;;16.50;13.75;;;;;24.52;40.61;101640.84;5056388;28;45408;-48
2021/08/17 04:26:57;;;;;;;;;11.75;10.25;;;;;24.51;40.22;101639.13;5056346;28;45405;-46
2021/08/17 04:29:22;;;;;;;;;13.25;11.25;;;;;24.51;40.14;101628.53;5057020;28;45396;-49
2021/08/17 04:31:47;;;;;;;;;14.25;13.00;;;;;24.51;40.16;101628.53;5038943;28;45325;-50
2021/08/17 04:34:13;;;;;;;;;15.75;12.00;;;;;24.50;40.45;101638.25;5056360;28;45502;-49
2021/08/17 04:36:38;;;;;;;;;13.00;12.50;;;;;24.49;40.46;101625.09;5056287;28;45479;-48
2021/08/17 04:39:04;;;;;;;;;13.25;11.50;;;;;24.49;40.07;101630.41;5056598;28;45273;-49
2021/08/17 04:41:29;;;;;;;;;13.50;12.00;;;;;24.48;40.28;101634.00;5056626;28;45315;-48
2021/08/17 04:43:55;;;;;;;;;10.00;8.25;;;;;24.47;40.22;101633.16;5056144;28;46670;-50
2021/08/17 04:46:20;;;;;;;;;12.25;12.25;;;;;24.49;40.20;101635.72;5038391;28;45319;-49
2021/08/17 04:48:45;;;;;;;;;12.00;11.50;;;;;24.48;40.11;101634.84;5056355;28;45399;-48
2021/08/17 04:51:11;;;;;;;;;13.00;11.25;;;;;24.47;40.22;101633.16;5038351;28;45551;-48
2021/08/17 04:53:39;;;;;;;;;14.25;11.25;;;;;24.46;39.96;101631.44;5055930;28;46419;-47
2021/08/17 04:56:05;;;;;;;;;10.25;9.75;;;;;24.48;40.23;101640.13;5056031;28;45266;-47
2021/08/17 04:58:31;;;;;;;;;13.25;12.25;;;;;24.48;40.59;101634.00;5055967;28;45249;-47
2021/08/17 05:00:56;;;;;;;;;11.50;11.50;;;;;24.47;40.21;101641.09;5056426;28;45331;-48
2021/08/17 05:03:23;;;;;;;;;11.75;10.25;;;;;24.46;40.69;101635.88;5058073;28;45409;-48
2021/08/17 05:05:48;;;;;;;;;14.00;12.00;;;;;24.46;40.48;101635.88;5059550;28;45323;-49
2021/08/17 05:08:14;;;;;;;;;12.00;12.00;;;;;24.43;40.54;101634.28;5059814;28;45351;-49
2021/08/17 05:10:39;;;;;;;;;15.25;12.00;;;;;24.45;40.00;101635.03;5059631;28;45535;-48
2021/08/17 05:13:05;;;;;;;;;15.00;10.00;;;;;24.46;40.57;101635.88;5059281;28;46522;-48
2021/08/17 05:15:31;;;;;;;;;14.50;12.75;;;;;24.47;40.85;101641.09;5059450;28;45250;-48
2021/08/17 05:17:57;;;;;;;;;14.25;11.00;;;;;24.46;40.80;101647.34;5059395;28;45363;-48
2021/08/17 05:20:23;;;;;;;;;12.50;11.75;;;;;24.48;40.94;101660.50;5059900;28;45603;-48
2021/08/17 05:22:48;;;;;;;;;14.50;13.00;;;;;24.49;40.61;101654.25;5059253;28;45418;-48
2021/08/17 05:25:14;;;;;;;;;11.00;10.75;;;;;24.49;40.30;101655.09;5058945;28;46797;-47
2021/08/17 05:27:39;;;;;;;;;15.50;12.00;;;;;24.48;40.22;101655.19;5059290;28;45312;-49
2021/08/17 05:30:06;;;;;;;;;14.00;10.50;;;;;24.45;40.39;101661.53;5059573;28;45624;-48
2021/08/17 05:32:32;;;;;;;;;13.75;10.50;;;;;24.39;40.33;101654.81;5059188;28;45447;-50
2021/08/17 05:34:57;;;;;;;;;13.50;13.50;;;;;24.36;39.83;101662.94;5059185;28;45458;-48
2021/08/17 05:37:23;;;;;;;;;13.50;10.25;;;;;24.32;40.13;101666.69;5059400;28;45355;-48
2021/08/17 05:39:48;;;;;;;;;16.50;14.75;;;;;24.26;40.10;101664.41;5059336;28;45397;-47
2021/08/17 05:42:13;;;;;;;;;14.50;11.75;;;;;24.21;40.35;101674.41;5059076;28;45709;-51
2021/08/17 05:44:41;;;;;;;;;14.00;11.00;;;;;24.17;40.82;101680.84;5057571;28;45350;-48
2021/08/17 05:47:06;;;;;;;;;14.75;11.25;;;;;24.14;40.64;101676.59;5041450;28;45434;-47
2021/08/17 05:49:32;;;;;;;;;14.75;12.75;;;;;24.16;40.49;101671.19;5059348;28;45429;-48
2021/08/17 05:51:57;;;;;;;;;15.25;11.25;;;;;24.17;40.71;101678.19;5058832;28;45341;-51
2021/08/17 05:54:25;;;;;;;;;9.75;9.00;;;;;24.17;40.71;101678.19;5059132;28;45279;-48
2021/08/17 05:56:51;;;;;;;;;10.00;8.75;;;;;24.18;40.14;101677.25;5059048;28;45243;-48
2021/08/17 05:59:16;;;;;;;;;13.50;11.00;;;;;24.18;40.19;101682.56;5058784;28;45472;-48
2021/08/17 06:01:42;;;;;;;;;12.50;12.00;;;;;24.16;40.33;101673.84;5057384;28;47027;-48
2021/08/17 06:04:07;;;;;;;;;16.00;14.25;;;;;24.17;40.14;101679.03;5058575;28;45425;-47
2021/08/17 06:06:32;;;;;;;;;12.25;11.25;;;;;24.19;40.37;101678.97;5040784;28;45722;-50
2021/08/17 06:08:58;;;;;;;;;13.25;12.00;;;;;24.19;40.07;101685.09;5058979;28;45340;-51
2021/08/17 06:11:23;;;;;;;;;13.50;10.75;;;;;24.19;40.61;101681.63;5058823;28;45593;-49
2021/08/17 06:13:48;;;;;;;;;12.00;10.25;;;;;24.19;40.35;101681.63;5039523;28;45333;-50
2021/08/17 06:16:14;;;;;;;;;10.50;10.50;;;;;24.18;40.06;101686.03;5058202;28;45321;-51
2021/08/17 06:18:40;;;;;;;;;16.00;14.00;;;;;24.19;40.28;101687.75;5058423;28;46728;-48
2021/08/17 06:21:05;;;;;;;;;11.25;9.75;;;;;24.19;40.26;101682.44;5058442;28;46819;-51
2021/08/17 06:23:30;;;;;;;;;15.50;13.25;;;;;24.21;40.55;101688.53;5058317;28;45372;-47
2021/08/17 06:25:56;;;;;;;;;13.00;11.75;;;;;24.20;40.41;101685.94;5058569;28;45395;-48
2021/08/17 06:28:21;;;;;;;;;15.75;13.25;;;;;24.22;40.58;101697.31;5058521;28;45506;-50
2021/08/17 06:30:46;;;;;;;;;12.75;12.25;;;;;24.19;40.21;101697.50;5058081;28;47103;-51
2021/08/17 06:33:12;;;;;;;;;14.50;13.50;;;;;24.22;40.30;101694.66;5058051;28;45249;-50
2021/08/17 06:35:37;;;;;;;;;11.25;11.25;;;;;24.20;40.68;101693.88;5058200;28;45446;-49
2021/08/17 06:38:03;;;;;;;;;14.00;12.75;;;;;24.19;40.39;101689.56;5040376;28;45251;-47
2021/08/17 06:40:28;;;;;;;;;14.50;11.50;;;;;24.13;40.47;101695.19;5058242;28;46096;-47
2021/08/17 06:42:54;;;;;;;;;12.75;10.75;;;;;24.05;40.39;101691.19;5057963;28;45309;-48
2021/08/17 06:45:20;;;;;;;;;14.00;10.75;;;;;23.99;40.69;101696.81;5058222;28;45183;-47
2021/08/17 06:47:49;;;;;;;;;14.50;11.50;;;;;23.94;40.57;101698.88;5056941;28;45697;-49
2021/08/17 06:50:15;;;;;;;;;17.75;11.50;;;;;23.88;41.15;101704.47;5057855;28;46365;-47
2021/08/17 06:52:40;;;;;;;;;13.50;10.50;;;;;23.82;41.11;101699.56;5057823;28;45439;-47
2021/08/17 06:55:07;;;;;;;;;11.00;10.00;;;;;23.76;41.15;101698.94;5058008;28;45324;-48
2021/08/17 06:57:33;;;;;;;;;12.00;10.25;;;;;23.73;41.44;101701.78;5058110;28;45551;-47
2021/08/17 06:59:58;;;;;;;;;15.00;10.50;;;;;23.72;41.61;101696.53;5057848;28;46578;-50
2021/08/17 07:02:23;;;;;;;;;9.75;9.75;;;;;23.70;41.50;101698.44;5057683;28;45348;-52
2021/08/17 07:04:49;;;;;;;;;15.00;10.50;;;;;23.66;41.65;101691.59;5057787;28;45349;-48
2021/08/17 07:07:14;;;;;;;;;13.00;12.25;;;;;23.62;41.61;101693.56;5058010;28;45646;-50
2021/08/17 07:09:39;;;;;;;;;12.50;11.75;;;;;23.61;41.66;101695.34;5057568;28;46618;-48
2021/08/17 07:12:05;;;;;;;;;11.25;9.00;;;;;23.61;41.83;101691.88;5057492;28;45288;-48
2021/08/17 07:14:30;;;;;;;;;8.75;7.75;;;;;23.59;41.66;101684.00;5058059;28;45423;-49
2021/08/17 07:16:56;;;;;;;;;12.75;9.75;;;;;23.56;41.88;101685.97;5058014;28;45467;-50
2021/08/17 07:19:21;;;;;;;;;12.00;9.50;;;;;23.58;41.69;101689.38;5057510;28;45357;-48
2021/08/17 07:21:46;;;;;;;;;9.25;8.00;;;;;23.60;42.02;101696.28;5057120;28;52790;-48
2021/08/17 07:24:12;;;;;;;;;13.75;12.00;;;;;23.65;42.29;101693.38;5057163;28;45374;-48
2021/08/17 07:26:37;;;;;;;;;9.25;9.25;;;;;23.71;42.41;101698.34;5057110;28;45645;-48
2021/08/17 07:29:03;;;;;;;;;12.25;11.00;;;;;23.80;42.18;101696.13;5039286;28;45370;-47
2021/08/17 07:31:30;;;;;;;;;11.25;10.00;;;;;23.86;42.06;101698.44;5057669;28;45351;-48
2021/08/17 07:33:56;;;;;;;;;11.00;10.00;;;;;23.91;42.10;101705.19;5057268;28;45414;-47
2021/08/17 07:36:21;;;;;;;;;11.00;9.75;;;;;23.99;41.94;101703.94;5057530;28;45426;-49
2021/08/17 07:38:47;;;;;;;;;11.25;10.50;;;;;24.03;42.18;101703.66;5055749;28;47339;-47
2021/08/17 07:41:12;;;;;;;;;10.00;10.00;;;;;24.06;41.96;101700.84;5057124;28;46029;-47
2021/08/17 07:43:37;;;;;;;;;12.00;9.75;;;;;24.09;42.40;101707.75;5057200;28;45359;-47
2021/08/17 07:46:03;;;;;;;;;13.50;10.50;;;;;24.12;42.12;101706.72;5057331;28;45561;-48
2021/08/17 07:48:28;;;;;;;;;8.25;8.25;;;;;24.15;42.03;101706.56;5057299;28;45241;-47
2021/08/17 07:50:54;;;;;;;;;9.25;8.50;;;;;24.18;41.95;101699.28;5057146;28;45244;-47
2021/08/17 07:53:19;;;;;;;;;10.25;9.50;;;;;24.21;41.67;101695.59;5056999;28;45344;-47
2021/08/17 07:55:44;;;;;;;;;8.00;8.00;;;;;24.24;42.20;101695.44;5039315;28;45457;-46
2021/08/17 07:58:10;;;;;;;;;9.50;9.50;;;;;24.25;41.50;101697.13;5038604;28;47488;-48
2021/08/17 08:00:35;;;;;;;;;11.75;9.75;;;;;24.28;41.98;101696.97;5056773;28;45353;-46
2021/08/17 08:03:00;;;;;;;;;9.25;8.25;;;;;24.29;41.70;101690.72;5057252;28;45369;-47
2021/08/17 08:05:27;;;;;;;;;9.75;9.75;;;;;24.30;41.26;101699.50;5057088;28;45661;-48
2021/08/17 08:07:52;;;;;;;;;9.00;9.00;;;;;24.33;41.96;101707.28;5056600;28;46390;-47
2021/08/17 08:10:18;;;;;;;;;10.50;9.50;;;;;24.33;41.83;101702.84;5056672;28;46286;-46
2021/08/17 08:12:43;;;;;;;;;8.75;8.75;;;;;24.35;41.58;101700.13;5056855;28;45474;-48
2021/08/17 08:15:11;;;;;;;;;11.00;9.75;;;;;24.37;41.72;101701.72;5057056;28;45361;-48
2021/08/17 08:17:36;;;;;;;;;11.25;9.00;;;;;24.38;41.66;101711.38;5056493;28;46483;-47
2021/08/17 08:20:03;;;;;;;;;8.50;6.00;;;;;24.41;41.45;101712.16;5057035;28;45368;-47
2021/08/17 08:22:29;;;;;;;;;11.00;10.00;;;;;24.41;41.91;101709.50;5056598;28;45450;-47
2021/08/17 08:24:54;;;;;;;;;10.50;8.75;;;;;24.41;41.87;101707.69;5056939;28;45663;-48
2021/08/17 08:27:20;;;;;;;;;11.25;11.00;;;;;24.41;41.67;101712.16;5056473;28;46317;-47
2021/08/17 08:29:45;;;;;;;;;11.25;10.00;;;;;24.38;41.41;101710.50;5056477;28;45345;-49
2021/08/17 08:32:11;;;;;;;;;12.25;12.25;;;;;24.34;41.27;101707.19;5056539;28;45389;-46
2021/08/17 08:34:37;;;;;;;;;9.25;9.25;;;;;24.34;41.81;101719.59;5056599;28;45323;-47
2021/08/17 08:37:03;;;;;;;;;9.00;9.00;;;;;24.31;41.79;101712.66;5055462;28;46329;-46
2021/08/17 08:39:28;;;;;;;;;9.00;8.00;;;;;24.32;42.17;101714.38;5056318;28;45415;-47
2021/08/17 08:41:54;;;;;;;;;10.00;8.75;;;;;24.32;42.23;101709.06;5056450;28;45264;-48
2021/08/17 08:44:19;;;;;;;;;10.75;9.50;;;;;24.33;42.42;101713.44;5056357;28;45570;-46
2021/08/17 08:46:44;;;;;;;;;11.00;8.75;;;;;24.39;42.18;101714.88;5056172;28;45419;-46
2021/08/17 08:49:10;;;;;;;;;10.75;8.25;;;;;24.42;41.79;101711.22;5056325;28;45506;-47
2021/08/17 08:51:36;;;;;;;;;14.25;11.25;;;;;24.44;42.47;101717.25;5056424;28;45327;-47
2021/08/17 08:54:03;;;;;;;;;11.25;10.00;;;;;24.47;42.34;101709.13;5056675;28;45326;-47
2021/08/17 08:56:29;;;;;;;;;10.75;8.25;;;;;24.50;42.49;101719.56;5056058;28;46440;-45
2021/08/17 08:58:55;;;;;;;;;8.75;8.00;;;;;24.52;41.92;101715.03;5055962;28;45449;-46
2021/08/17 09:01:22;;;;;;;;;9.75;9.00;;;;;24.54;42.27;101714.00;5056224;28;45411;-47
2021/08/17 09:03:52;;;;;;;;;9.50;9.25;;;;;24.55;41.79;101712.19;5056455;28;45568;-47
2021/08/17 09:06:26;;;;;;;;;7.00;7.00;;;;;24.58;42.29;101703.22;5037811;28;46123;-48
2021/08/17 09:09:06;;;;;;;;;9.50;8.25;;;;;24.59;42.27;101711.06;5055904;28;45346;-47
2021/08/17 09:11:31;;;;;;;;;12.50;8.00;;;;;24.58;42.36;101709.34;5056048;28;45236;-47
2021/08/17 09:14:24;;;;;;;;;7.75;7.75;;;;;24.60;41.95;101706.59;5056208;28;45703;-47
2021/08/17 09:16:56;;;;;;;;;11.75;8.50;;;;;24.59;42.22;101705.75;5055775;28;45415;-47
2021/08/17 09:19:34;;;;;;;;;10.25;9.00;;;;;24.60;42.24;101712.78;5055841;28;45399;-48
2021/08/17 09:22:24;;;;;;;;;14.25;10.00;;;;;24.60;41.78;101706.59;5055870;28;45395;-47
2021/08/17 09:24:50;;;;;;;;;9.25;8.75;;;;;24.60;41.73;101704.81;5037419;28;45525;-47
2021/08/17 09:27:18;;;;;;;;;10.00;9.25;;;;;24.62;41.81;101707.38;5055628;28;46297;-47
2021/08/17 09:29:46;;;;;;;;;9.50;9.00;;;;;24.60;41.77;101707.47;5055804;28;45241;-47
2021/08/17 09:32:26;;;;;;;;;12.00;8.50;;;;;24.55;41.93;101704.22;5055979;28;45268;-47
2021/08/17 09:34:55;;;;;;;;;8.75;7.25;;;;;24.49;41.88;101704.59;5037676;28;45418;-50
2021/08/17 09:37:24;;;;;;;;;7.25;7.00;;;;;24.43;42.02;101704.94;5054727;28;46101;-49
2021/08/17 09:39:54;;;;;;;;;8.00;6.00;;;;;24.39;41.81;101705.16;5055634;28;45800;-50
2021/08/17 09:42:23;;;;;;;;;10.75;9.50;;;;;24.37;41.87;101698.22;5055553;28;45174;-49
2021/08/17 09:45:17;;;;;;;;;10.00;7.00;;;;;24.39;42.24;101694.56;5055607;28;45353;-49
2021/08/17 09:47:45;;;;;;;;;8.00;7.75;;;;;24.42;41.97;101697.97;5055208;28;46573;-47
2021/08/17 09:50:24;;;;;;;;;10.00;10.00;;;;;24.43;42.05;101702.28;5058338;28;45390;-51
2021/08/17 09:53:03;;;;;;;;;10.00;9.75;;;;;24.41;41.78;101686.50;5059064;28;45241;-49
2021/08/17 09:55:29;;;;;;;;;9.25;8.50;;;;;24.38;41.85;101694.63;5059143;28;45406;-50
2021/08/17 09:57:54;;;;;;;;;8.25;6.00;;;;;24.37;41.75;101700.84;5058582;28;45392;-49
2021/08/17 10:00:20;;;;;;;;;8.75;7.00;;;;;24.38;42.27;101691.97;5058365;28;45365;-51
2021/08/17 10:02:47;;;;;;;;;8.00;8.00;;;;;24.41;42.15;101689.16;5058894;28;45399;-50
2021/08/17 10:05:15;;;;;;;;;9.50;9.00;;;;;24.43;41.85;101689.91;5058969;28;45524;-49
2021/08/17 10:07:42;;;;;;;;;9.50;7.00;;;;;24.47;42.08;101685.28;5058617;28;46359;-47
2021/08/17 10:10:10;;;;;;;;;9.50;7.75;;;;;24.50;41.78;101685.13;5058869;28;45903;-48
2021/08/17 10:12:36;;;;;;;;;7.75;7.00;;;;;24.52;42.23;101685.88;5059038;28;45890;-48
2021/08/17 10:15:06;;;;;;;;;11.00;9.75;;;;;24.54;41.92;101679.53;5058874;28;45585;-48
2021/08/17 10:17:31;;;;;;;;;10.00;8.00;;;;;24.58;41.91;101680.22;5058418;28;45687;-47
2021/08/17 10:19:56;;;;;;;;;8.00;7.00;;;;;24.61;41.57;101677.38;5058389;28;45352;-49
2021/08/17 10:22:22;;;;;;;;;11.50;8.00;;;;;24.64;41.98;101666.56;5058372;28;45422;-50
2021/08/17 10:24:49;;;;;;;;;6.50;6.50;;;;;24.66;41.68;101670.00;5058659;28;45466;-47
2021/08/17 10:27:35;;;;;;;;;10.50;9.50;;;;;24.69;41.64;101667.19;5058148;28;46410;-48
2021/08/17 10:30:17;;;;;;;;;9.25;7.25;;;;;24.72;41.48;101667.97;5058209;28;45801;-49
2021/08/17 10:32:52;;;;;;;;;9.50;9.50;;;;;24.73;41.18;101667.03;5058281;28;45434;-47
2021/08/17 10:35:29;;;;;;;;;10.25;10.00;;;;;24.72;41.91;101673.25;5058455;28;45462;-48
2021/08/17 10:38:07;;;;;;;;;9.25;9.25;;;;;24.71;42.09;101672.41;5058086;28;45408;-49
2021/08/17 10:40:51;;;;;;;;;13.25;12.25;;;;;24.70;41.92;101668.03;5057946;28;45388;-49
2021/08/17 10:43:31;;;;;;;;;12.00;10.00;;;;;24.67;42.15;101660.25;5058052;28;45434;-48
2021/08/17 10:45:59;;;;;;;;;7.75;7.75;;;;;24.65;42.38;101656.84;5058397;28;45300;-48
2021/08/17 10:51:37;;;;;;;;;8.00;8.00;;;;;24.66;42.28;101656.75;5058274;28;45691;-48
2021/08/17 10:54:02;;;;;;;;;7.75;7.75;;;;;24.66;41.97;101654.09;5039876;28;45359;-48
2021/08/17 10:56:30;;;;;;;;;9.00;8.33;;;;;24.65;41.73;101655.03;5058198;28;45330;-48
2021/08/17 10:58:58;;;;;;;;;11.50;9.00;;;;;24.65;41.85;101662.97;5057611;28;46499;-48
2021/08/17 11:01:35;;;;;;;;;12.00;9.00;;;;;24.66;41.84;101650.59;5057020;28;45793;-47
2021/08/17 11:04:10;;;;;;;;;10.00;7.75;;;;;24.65;41.50;101657.69;5057861;28;45281;-47
2021/08/17 11:06:43;;;;;;;;;8.25;7.75;;;;;24.65;41.67;101651.53;5058076;28;45415;-48
2021/08/17 11:09:20;;;;;;;;;8.25;8.25;;;;;24.65;41.61;101656.84;5057849;28;46461;-47
2021/08/17 11:11:53;;;;;;;;;11.00;9.00;;;;;24.62;41.53;101652.59;5057711;28;45678;-46
2021/08/17 11:14:21;;;;;;;;;11.25;9.75;;;;;24.61;41.35;101653.53;5057612;28;45212;-49
2021/08/17 11:17:11;;;;;;;;;12.75;10.00;;;;;24.59;41.62;101642.16;5057803;28;45307;-47